createdAt,value
2018-03-14T00:00:05.404Z,22.52
2018-03-14T00:01:04.811Z,22.55
2018-03-14T00:02:04.842Z,22.58
2018-03-14T00:03:03.888Z,22.47
2018-03-14T00:04:04.434Z,22.49
2018-03-14T00:05:03.951Z,22.58
2018-03-14T00:06:04.987Z,22.51
2018-03-14T00:06:53.840Z,22.63
2018-03-14T00:08:05.017Z,22.53
2018-03-14T00:09:04.548Z,22.59
2018-03-14T00:10:03.088Z,22.52
2018-03-14T00:11:04.115Z,22.49
2018-03-14T00:12:04.148Z,22.55
2018-03-14T00:13:03.687Z,22.51
2018-03-14T00:13:53.575Z,22.53
2018-03-14T00:15:03.237Z,22.53
2018-03-14T00:16:05.789Z,22.52
2018-03-14T00:17:03.810Z,22.53
2018-03-14T00:18:03.823Z,22.51
2018-03-14T00:19:03.847Z,22.58
2018-03-14T00:19:53.394Z,22.56
2018-03-14T00:21:02.897Z,22.53
2018-03-14T00:22:03.441Z,22.56
2018-03-14T00:23:03.452Z,22.56
2018-03-14T00:23:53.204Z,22.55
2018-03-14T00:25:04.009Z,22.58
2018-03-14T00:26:03.526Z,22.51
2018-03-14T00:27:04.558Z,22.58
2018-03-14T00:28:03.604Z,22.55
2018-03-14T00:29:03.131Z,22.58
2018-03-14T00:30:03.662Z,22.56
2018-03-14T00:31:03.190Z,22.55
2018-03-14T00:32:03.732Z,22.58
2018-03-14T00:33:03.254Z,22.58
2018-03-14T00:34:03.296Z,22.58
2018-03-14T00:35:02.837Z,22.58
2018-03-14T00:36:03.378Z,22.59
2018-03-14T00:36:52.718Z,22.51
2018-03-14T00:37:52.668Z,22.53
2018-03-14T00:38:52.634Z,22.44
2018-03-14T00:40:02.931Z,22.53
2018-03-14T00:40:52.569Z,22.47
2018-03-14T00:42:03.457Z,22.53
2018-03-14T00:42:52.481Z,22.56
2018-03-14T00:43:52.454Z,22.55
2018-03-14T00:45:02.478Z,22.51
2018-03-14T00:46:01.513Z,22.55
2018-03-14T00:47:02.059Z,22.52
2018-03-14T00:47:52.299Z,22.55
2018-03-14T00:49:02.580Z,22.53
2018-03-14T00:50:01.631Z,22.52
2018-03-14T00:50:52.183Z,22.58
2018-03-14T00:51:52.151Z,22.55
2018-03-14T00:52:52.137Z,22.61
2018-03-14T00:54:02.146Z,22.55
2018-03-14T00:54:52.030Z,22.58
2018-03-14T00:56:02.681Z,22.55
2018-03-14T00:57:02.221Z,22.55
2018-03-14T00:58:01.754Z,22.58
2018-03-14T00:59:03.277Z,22.56
2018-03-14T01:00:03.307Z,22.61
2018-03-14T01:01:00.841Z,22.56
2018-03-14T01:01:51.766Z,22.67
2018-03-14T01:03:02.384Z,22.62
2018-03-14T01:04:01.910Z,22.59
2018-03-14T01:05:01.961Z,22.56
2018-03-14T01:06:00.991Z,22.55
2018-03-14T01:07:02.041Z,22.56
2018-03-14T01:07:51.539Z,22.62
2018-03-14T01:09:02.055Z,22.61
2018-03-14T01:09:51.470Z,22.58
2018-03-14T01:11:01.590Z,22.56
2018-03-14T01:11:51.392Z,22.59
2018-03-14T01:12:51.378Z,22.62
2018-03-14T01:13:51.316Z,22.59
2018-03-14T01:15:02.613Z,22.58
2018-03-14T01:16:01.653Z,22.59
2018-03-14T01:16:51.201Z,22.58
2018-03-14T01:18:04.199Z,22.62
2018-03-14T01:19:01.234Z,22.58
2018-03-14T01:20:01.255Z,22.61
2018-03-14T01:21:03.793Z,22.59
2018-03-14T01:22:01.325Z,22.56
2018-03-14T01:22:50.980Z,22.59
2018-03-14T01:24:01.865Z,22.56
2018-03-14T01:25:00.398Z,22.67
2018-03-14T01:25:50.871Z,22.58
2018-03-14T01:26:50.826Z,22.56
2018-03-14T01:28:02.441Z,22.55
2018-03-14T01:28:50.763Z,22.62
2018-03-14T01:30:00.981Z,22.59
2018-03-14T01:30:50.676Z,22.56
2018-03-14T01:31:50.639Z,22.52
2018-03-14T01:33:01.516Z,22.58
2018-03-14T01:33:50.561Z,22.56
2018-03-14T01:34:50.528Z,22.59
2018-03-14T01:35:50.496Z,22.59
2018-03-14T01:36:50.450Z,22.53
2018-03-14T01:37:50.436Z,22.56
2018-03-14T01:38:50.376Z,22.61
2018-03-14T01:39:50.342Z,22.55
2018-03-14T01:41:00.559Z,22.61
2018-03-14T01:42:01.583Z,22.61
2018-03-14T01:43:01.125Z,22.58
2018-03-14T01:44:01.648Z,22.70
2018-03-14T01:45:00.680Z,22.58
2018-03-14T01:46:00.220Z,22.59
2018-03-14T01:46:50.081Z,22.65
2018-03-14T01:47:50.084Z,22.62
2018-03-14T01:49:01.790Z,22.61
2018-03-14T01:50:00.292Z,22.76
2018-03-14T01:50:49.927Z,22.65
2018-03-14T01:51:59.336Z,22.63
2018-03-14T01:52:49.850Z,22.65
2018-03-14T01:53:49.846Z,22.61
2018-03-14T01:54:49.778Z,22.67
2018-03-14T01:55:49.742Z,22.65
2018-03-14T01:56:49.706Z,22.65
2018-03-14T01:57:49.670Z,22.68
2018-03-14T01:58:49.662Z,22.67
2018-03-14T01:59:49.592Z,22.58
2018-03-14T02:00:49.561Z,22.67
2018-03-14T02:01:49.517Z,22.68
2018-03-14T02:02:49.483Z,22.61
2018-03-14T02:03:49.477Z,22.65
2018-03-14T02:04:49.409Z,22.68
2018-03-14T02:05:49.372Z,22.63
2018-03-14T02:06:49.341Z,22.71
2018-03-14T02:07:49.297Z,22.73
2018-03-14T02:08:49.286Z,22.74
2018-03-14T02:09:49.254Z,22.68
2018-03-14T02:10:49.188Z,22.73
2018-03-14T02:11:49.148Z,22.67
2018-03-14T02:12:59.370Z,22.78
2018-03-14T02:13:49.076Z,22.67
2018-03-14T02:14:49.037Z,22.77
2018-03-14T02:15:49.028Z,22.67
2018-03-14T02:16:48.973Z,22.81
2018-03-14T02:17:48.932Z,22.83
2018-03-14T02:18:48.890Z,22.77
2018-03-14T02:19:48.858Z,22.74
2018-03-14T02:20:48.853Z,22.74
2018-03-14T02:21:48.791Z,22.78
2018-03-14T02:22:48.748Z,22.76
2018-03-14T02:23:48.712Z,22.80
2018-03-14T02:24:48.675Z,22.80
2018-03-14T02:25:48.641Z,22.84
2018-03-14T02:26:48.632Z,22.89
2018-03-14T02:27:48.570Z,22.91
2018-03-14T02:28:48.534Z,22.88
2018-03-14T02:29:48.512Z,22.84
2018-03-14T02:30:48.455Z,22.89
2018-03-14T02:31:48.420Z,22.89
2018-03-14T02:32:48.416Z,22.86
2018-03-14T02:33:48.348Z,22.89
2018-03-14T02:34:48.313Z,22.83
2018-03-14T02:35:48.289Z,22.89
2018-03-14T02:36:48.244Z,22.91
2018-03-14T02:37:48.202Z,22.86
2018-03-14T02:38:48.185Z,22.84
2018-03-14T02:39:48.124Z,22.86
2018-03-14T02:40:48.094Z,22.80
2018-03-14T02:41:48.051Z,22.93
2018-03-14T02:42:48.021Z,22.86
2018-03-14T02:43:48.010Z,22.91
2018-03-14T02:44:47.943Z,22.84
2018-03-14T02:45:47.909Z,22.89
2018-03-14T02:46:47.870Z,22.86
2018-03-14T02:47:47.840Z,22.84
2018-03-14T02:48:47.829Z,22.95
2018-03-14T02:49:47.766Z,22.92
2018-03-14T02:50:47.723Z,22.84
2018-03-14T02:51:47.693Z,22.84
2018-03-14T02:52:47.658Z,22.89
2018-03-14T02:53:47.620Z,22.89
2018-03-14T02:54:47.613Z,22.93
2018-03-14T02:55:47.571Z,22.89
2018-03-14T02:56:47.512Z,22.95
2018-03-14T02:57:47.478Z,22.86
2018-03-14T02:58:47.436Z,22.95
2018-03-14T02:59:47.397Z,22.81
2018-03-14T03:00:47.388Z,22.93
2018-03-14T03:01:47.326Z,22.86
2018-03-14T03:02:47.291Z,22.92
2018-03-14T03:03:47.257Z,22.88
2018-03-14T03:04:47.222Z,22.92
2018-03-14T03:05:47.202Z,22.89
2018-03-14T03:06:47.145Z,22.91
2018-03-14T03:07:47.104Z,22.84
2018-03-14T03:08:47.068Z,22.93
2018-03-14T03:09:47.035Z,22.89
2018-03-14T03:10:47.024Z,22.91
2018-03-14T03:11:46.965Z,22.88
2018-03-14T03:12:46.974Z,22.83
2018-03-14T03:13:46.892Z,22.99
2018-03-14T03:14:46.872Z,22.91
2018-03-14T03:15:46.826Z,22.84
2018-03-14T03:16:46.785Z,22.84
2018-03-14T03:17:46.749Z,22.81
2018-03-14T03:18:46.706Z,22.99
2018-03-14T03:19:46.689Z,22.98
2018-03-14T03:20:46.634Z,22.96
2018-03-14T03:21:46.599Z,22.84
2018-03-14T03:22:46.557Z,22.93
2018-03-14T03:23:46.522Z,22.92
2018-03-14T03:24:46.514Z,22.93
2018-03-14T03:25:46.456Z,22.98
2018-03-14T03:26:46.412Z,22.84
2018-03-14T03:27:46.401Z,22.93
2018-03-14T03:28:46.339Z,22.96
2018-03-14T03:29:46.309Z,22.88
2018-03-14T03:30:46.288Z,23.04
2018-03-14T03:31:46.237Z,22.96
2018-03-14T03:32:46.222Z,22.86
2018-03-14T03:33:46.166Z,22.95
2018-03-14T03:34:46.131Z,22.93
2018-03-14T03:35:46.085Z,22.95
2018-03-14T03:36:46.086Z,22.93
2018-03-14T03:37:46.018Z,22.84
2018-03-14T03:38:45.979Z,22.91
2018-03-14T03:39:45.953Z,22.84
2018-03-14T03:40:45.910Z,22.93
2018-03-14T03:41:45.871Z,22.89
2018-03-14T03:42:45.855Z,22.92
2018-03-14T03:43:45.799Z,22.95
2018-03-14T03:44:45.762Z,22.91
2018-03-14T03:45:45.725Z,22.98
2018-03-14T03:46:45.715Z,22.93
2018-03-14T03:47:45.647Z,22.84
2018-03-14T03:48:45.619Z,22.92
2018-03-14T03:49:45.580Z,22.96
2018-03-14T03:50:45.543Z,22.84
2018-03-14T03:51:45.531Z,22.86
2018-03-14T03:52:45.466Z,22.88
2018-03-14T03:53:45.431Z,22.96
2018-03-14T03:54:45.399Z,22.93
2018-03-14T03:55:45.359Z,22.92
2018-03-14T03:56:45.358Z,22.96
2018-03-14T03:57:45.306Z,22.98
2018-03-14T03:58:45.258Z,22.86
2018-03-14T03:59:45.212Z,22.96
2018-03-14T04:00:45.177Z,22.89
2018-03-14T04:01:45.144Z,22.83
2018-03-14T04:02:45.131Z,22.80
2018-03-14T04:03:45.066Z,22.84
2018-03-14T04:04:45.041Z,22.92
2018-03-14T04:05:44.999Z,22.91
2018-03-14T04:06:44.955Z,22.93
2018-03-14T04:07:44.926Z,22.88
2018-03-14T04:08:44.905Z,22.88
2018-03-14T04:09:44.858Z,22.92
2018-03-14T04:10:44.822Z,22.88
2018-03-14T04:11:44.780Z,22.91
2018-03-14T04:12:44.739Z,22.98
2018-03-14T04:13:44.726Z,22.89
2018-03-14T04:14:44.669Z,22.86
2018-03-14T04:15:44.632Z,22.86
2018-03-14T04:16:44.598Z,22.98
2018-03-14T04:17:44.562Z,22.84
2018-03-14T04:18:44.545Z,22.84
2018-03-14T04:19:44.488Z,22.89
2018-03-14T04:20:44.454Z,22.98
2018-03-14T04:21:44.415Z,22.86
2018-03-14T04:22:44.380Z,22.98
2018-03-14T04:23:44.363Z,22.95
2018-03-14T04:24:44.310Z,22.98
2018-03-14T04:25:44.272Z,22.98
2018-03-14T04:26:44.237Z,22.96
2018-03-14T04:27:44.195Z,22.89
2018-03-14T04:28:44.202Z,22.95
2018-03-14T04:29:44.155Z,22.96
2018-03-14T04:30:44.091Z,22.95
2018-03-14T04:31:44.052Z,22.84
2018-03-14T04:32:44.014Z,22.88
2018-03-14T04:33:43.982Z,22.89
2018-03-14T04:34:43.971Z,22.93
2018-03-14T04:35:43.907Z,22.95
2018-03-14T04:36:43.867Z,22.91
2018-03-14T04:37:43.833Z,22.95
2018-03-14T04:38:43.824Z,22.95
2018-03-14T04:39:43.763Z,22.96
2018-03-14T04:40:43.723Z,22.93
2018-03-14T04:41:43.688Z,22.86
2018-03-14T04:42:43.647Z,22.86
2018-03-14T04:43:43.622Z,22.93
2018-03-14T04:44:43.607Z,22.86
2018-03-14T04:45:43.546Z,22.95
2018-03-14T04:46:43.501Z,22.88
2018-03-14T04:47:43.467Z,22.96
2018-03-14T04:48:43.432Z,22.91
2018-03-14T04:49:43.396Z,22.86
2018-03-14T04:50:43.388Z,22.93
2018-03-14T04:51:54.427Z,22.93
2018-03-14T04:52:43.284Z,22.84
2018-03-14T04:53:43.251Z,22.96
2018-03-14T04:54:43.215Z,22.93
2018-03-14T04:55:43.210Z,22.84
2018-03-14T04:56:43.148Z,22.84
2018-03-14T04:57:43.108Z,22.84
2018-03-14T04:58:43.072Z,22.86
2018-03-14T04:59:43.034Z,22.88
2018-03-14T05:00:43.018Z,22.92
2018-03-14T05:01:42.960Z,22.95
2018-03-14T05:02:42.930Z,22.86
2018-03-14T05:03:42.891Z,22.96
2018-03-14T05:04:42.876Z,22.83
2018-03-14T05:05:42.814Z,22.88
2018-03-14T05:06:42.785Z,22.92
2018-03-14T05:07:42.750Z,22.88
2018-03-14T05:08:42.699Z,22.92
2018-03-14T05:09:42.697Z,22.86
2018-03-14T05:10:42.633Z,22.92
2018-03-14T05:11:42.603Z,22.91
2018-03-14T05:12:42.555Z,22.83
2018-03-14T05:13:42.523Z,22.89
2018-03-14T05:14:42.534Z,22.92
2018-03-14T05:15:42.446Z,22.88
2018-03-14T05:16:42.415Z,22.88
2018-03-14T05:17:42.374Z,22.88
2018-03-14T05:18:42.341Z,22.95
2018-03-14T05:19:42.332Z,22.88
2018-03-14T05:20:42.269Z,22.91
2018-03-14T05:21:42.232Z,22.91
2018-03-14T05:22:42.194Z,22.89
2018-03-14T05:23:42.160Z,22.89
2018-03-14T05:24:42.189Z,22.91
2018-03-14T05:25:42.080Z,22.89
2018-03-14T05:26:42.104Z,22.91
2018-03-14T05:27:42.011Z,22.83
2018-03-14T05:28:41.976Z,22.93
2018-03-14T05:29:42.158Z,22.88
2018-03-14T05:30:41.900Z,22.96
2018-03-14T05:31:41.867Z,22.86
2018-03-14T05:32:41.830Z,22.92
2018-03-14T05:33:41.918Z,22.89
2018-03-14T05:34:41.750Z,22.95
2018-03-14T05:35:41.742Z,22.96
2018-03-14T05:36:41.686Z,22.88
2018-03-14T05:37:41.654Z,22.88
2018-03-14T05:38:41.607Z,22.91
2018-03-14T05:39:41.574Z,22.88
2018-03-14T05:40:41.747Z,22.83
2018-03-14T05:41:41.498Z,22.91
2018-03-14T05:42:41.468Z,22.88
2018-03-14T05:43:41.426Z,22.86
2018-03-14T05:44:41.386Z,22.88
2018-03-14T05:45:41.354Z,22.86
2018-03-14T05:46:41.348Z,22.86
2018-03-14T05:47:41.289Z,22.93
2018-03-14T05:48:41.241Z,22.92
2018-03-14T05:49:41.208Z,22.88
2018-03-14T05:50:41.173Z,22.88
2018-03-14T05:51:41.156Z,22.88
2018-03-14T05:52:41.102Z,22.83
2018-03-14T05:53:41.066Z,22.86
2018-03-14T05:54:41.028Z,22.88
2018-03-14T05:55:40.986Z,22.86
2018-03-14T05:56:41.172Z,22.88
2018-03-14T05:57:40.913Z,22.84
2018-03-14T05:58:40.887Z,22.93
2018-03-14T05:59:40.862Z,22.92
2018-03-14T06:00:40.810Z,22.96
2018-03-14T06:01:40.824Z,22.93
2018-03-14T06:02:40.733Z,22.91
2018-03-14T06:03:40.703Z,22.93
2018-03-14T06:04:40.659Z,22.84
2018-03-14T06:05:40.664Z,22.86
2018-03-14T06:06:40.591Z,22.86
2018-03-14T06:07:40.582Z,22.92
2018-03-14T06:08:40.523Z,22.88
2018-03-14T06:09:40.483Z,22.89
2018-03-14T06:10:40.438Z,22.86
2018-03-14T06:11:40.409Z,22.96
2018-03-14T06:12:40.403Z,22.92
2018-03-14T06:13:40.334Z,22.81
2018-03-14T06:14:40.301Z,22.96
2018-03-14T06:15:40.267Z,22.91
2018-03-14T06:16:40.225Z,22.93
2018-03-14T06:17:40.199Z,22.96
2018-03-14T06:18:40.183Z,22.96
2018-03-14T06:19:40.110Z,22.88
2018-03-14T06:20:40.078Z,22.89
2018-03-14T06:21:40.043Z,22.84
2018-03-14T06:22:40.009Z,22.93
2018-03-14T06:23:39.999Z,22.88
2018-03-14T06:24:39.938Z,22.88
2018-03-14T06:25:39.898Z,22.95
2018-03-14T06:26:39.863Z,22.88
2018-03-14T06:27:39.822Z,22.81
2018-03-14T06:28:39.823Z,22.86
2018-03-14T06:29:39.757Z,22.88
2018-03-14T06:30:39.718Z,22.84
2018-03-14T06:31:39.707Z,22.88
2018-03-14T06:32:39.644Z,22.84
2018-03-14T06:33:39.608Z,22.83
2018-03-14T06:34:39.597Z,22.89
2018-03-14T06:35:39.537Z,22.84
2018-03-14T06:36:39.502Z,22.93
2018-03-14T06:37:39.461Z,22.95
2018-03-14T06:38:39.425Z,22.99
2018-03-14T06:39:39.428Z,22.93
2018-03-14T06:40:39.353Z,22.91
2018-03-14T06:41:39.314Z,22.93
2018-03-14T06:42:39.273Z,22.83
2018-03-14T06:43:39.240Z,22.95
2018-03-14T06:44:39.209Z,22.95
2018-03-14T06:45:39.191Z,22.96
2018-03-14T06:46:39.142Z,22.88
2018-03-14T06:47:39.097Z,22.98
2018-03-14T06:48:39.070Z,22.84
2018-03-14T06:49:39.021Z,23.01
2018-03-14T06:50:39.336Z,23.01
2018-03-14T06:51:38.948Z,22.95
2018-03-14T06:52:38.920Z,22.93
2018-03-14T06:53:38.880Z,22.96
2018-03-14T06:54:38.841Z,23.02
2018-03-14T06:55:38.811Z,22.95
2018-03-14T06:56:38.792Z,22.92
2018-03-14T06:57:38.735Z,22.99
2018-03-14T06:58:38.694Z,22.95
2018-03-14T06:59:38.660Z,22.96
2018-03-14T07:00:38.627Z,22.95
2018-03-14T07:01:38.618Z,22.98
2018-03-14T07:02:38.548Z,22.96
2018-03-14T07:03:38.544Z,22.95
2018-03-14T07:04:38.512Z,22.93
2018-03-14T07:05:38.447Z,22.99
2018-03-14T07:06:38.406Z,22.95
2018-03-14T07:07:38.367Z,22.95
2018-03-14T07:08:38.337Z,22.99
2018-03-14T07:09:38.336Z,22.99
2018-03-14T07:10:38.264Z,22.95
2018-03-14T07:11:38.224Z,22.91
2018-03-14T07:12:38.185Z,22.93
2018-03-14T07:13:38.179Z,22.96
2018-03-14T07:14:38.121Z,22.95
2018-03-14T07:15:38.079Z,22.95
2018-03-14T07:16:38.040Z,22.98
2018-03-14T07:17:38.027Z,22.88
2018-03-14T07:18:37.967Z,22.96
2018-03-14T07:19:37.930Z,22.86
2018-03-14T07:20:37.902Z,22.93
2018-03-14T07:21:37.858Z,22.96
2018-03-14T07:22:37.854Z,22.96
2018-03-14T07:23:37.790Z,23.02
2018-03-14T07:24:37.755Z,22.98
2018-03-14T07:25:37.719Z,22.89
2018-03-14T07:26:37.676Z,22.96
2018-03-14T07:27:37.667Z,22.96
2018-03-14T07:28:37.619Z,22.98
2018-03-14T07:29:37.565Z,22.93
2018-03-14T07:30:37.544Z,22.95
2018-03-14T07:31:37.500Z,22.93
2018-03-14T07:32:37.481Z,22.95
2018-03-14T07:33:37.425Z,22.95
2018-03-14T07:34:37.387Z,22.89
2018-03-14T07:35:37.355Z,22.98
2018-03-14T07:36:37.312Z,22.96
2018-03-14T07:37:37.321Z,23.01
2018-03-14T07:38:37.278Z,22.96
2018-03-14T07:39:37.218Z,23.08
2018-03-14T07:40:37.169Z,23.01
2018-03-14T07:41:37.133Z,22.98
2018-03-14T07:42:37.100Z,22.99
2018-03-14T07:43:37.090Z,22.93
2018-03-14T07:44:37.058Z,22.96
2018-03-14T07:45:37.015Z,22.96
2018-03-14T07:46:36.956Z,23.04
2018-03-14T07:47:36.914Z,23.01
2018-03-14T07:48:36.891Z,22.92
2018-03-14T07:49:36.867Z,23.02
2018-03-14T07:50:36.813Z,23.06
2018-03-14T07:51:36.774Z,22.98
2018-03-14T07:52:36.734Z,22.91
2018-03-14T07:53:36.694Z,23.02
2018-03-14T07:54:36.691Z,22.91
2018-03-14T07:55:36.630Z,23.01
2018-03-14T07:56:36.597Z,22.99
2018-03-14T07:57:36.555Z,23.04
2018-03-14T07:58:36.517Z,23.01
2018-03-14T07:59:36.526Z,23.06
2018-03-14T08:00:36.449Z,22.99
2018-03-14T08:01:36.409Z,23.01
2018-03-14T08:02:36.374Z,23.01
2018-03-14T08:03:36.333Z,22.95
2018-03-14T08:04:36.302Z,22.95
2018-03-14T08:05:36.292Z,23.01
2018-03-14T08:06:36.226Z,23.01
2018-03-14T08:07:36.192Z,23.02
2018-03-14T08:08:36.156Z,23.06
2018-03-14T08:09:36.118Z,23.10
2018-03-14T08:10:36.080Z,23.06
2018-03-14T08:11:36.067Z,23.04
2018-03-14T08:12:36.005Z,23.01
2018-03-14T08:13:36.014Z,23.04
2018-03-14T08:14:35.937Z,23.07
2018-03-14T08:15:35.902Z,23.04
2018-03-14T08:16:36.474Z,23.04
2018-03-14T08:17:35.828Z,23.08
2018-03-14T08:18:35.791Z,23.04
2018-03-14T08:19:35.752Z,23.07
2018-03-14T08:20:35.720Z,23.06
2018-03-14T08:21:35.701Z,23.07
2018-03-14T08:22:35.651Z,23.07
2018-03-14T08:23:35.610Z,23.07
2018-03-14T08:24:35.577Z,23.11
2018-03-14T08:25:35.538Z,23.04
2018-03-14T08:26:35.525Z,23.10
2018-03-14T08:27:35.461Z,23.07
2018-03-14T08:28:35.433Z,23.11
2018-03-14T08:29:35.398Z,23.07
2018-03-14T08:30:35.355Z,23.10
2018-03-14T08:31:35.345Z,23.08
2018-03-14T08:32:35.282Z,23.10
2018-03-14T08:33:35.247Z,23.13
2018-03-14T08:34:35.219Z,23.13
2018-03-14T08:35:35.173Z,23.11
2018-03-14T08:36:35.180Z,23.07
2018-03-14T08:37:35.101Z,23.07
2018-03-14T08:38:35.064Z,23.17
2018-03-14T08:39:35.032Z,23.20
2018-03-14T08:40:34.997Z,23.11
2018-03-14T08:41:35.027Z,23.14
2018-03-14T08:42:34.947Z,23.14
2018-03-14T08:43:34.883Z,23.16
2018-03-14T08:44:34.851Z,23.11
2018-03-14T08:45:34.818Z,23.20
2018-03-14T08:46:34.780Z,23.18
2018-03-14T08:47:34.758Z,23.17
2018-03-14T08:48:34.705Z,23.18
2018-03-14T08:49:34.672Z,23.17
2018-03-14T08:50:34.631Z,23.16
2018-03-14T08:51:34.597Z,23.13
2018-03-14T08:52:34.580Z,23.14
2018-03-14T08:53:34.525Z,23.23
2018-03-14T08:54:34.485Z,23.18
2018-03-14T08:55:34.448Z,23.23
2018-03-14T08:56:34.416Z,23.17
2018-03-14T08:57:34.400Z,23.18
2018-03-14T08:58:34.340Z,23.25
2018-03-14T08:59:34.316Z,23.18
2018-03-14T09:00:34.276Z,23.18
2018-03-14T09:01:34.239Z,23.20
2018-03-14T09:02:34.228Z,23.17
2018-03-14T09:03:34.162Z,23.26
2018-03-14T09:04:34.125Z,23.23
2018-03-14T09:05:34.085Z,23.28
2018-03-14T09:06:34.051Z,23.29
2018-03-14T09:07:34.041Z,23.26
2018-03-14T09:08:33.979Z,23.20
2018-03-14T09:09:33.948Z,23.17
2018-03-14T09:10:33.904Z,23.25
2018-03-14T09:11:33.873Z,23.28
2018-03-14T09:12:33.864Z,23.26
2018-03-14T09:13:33.802Z,23.23
2018-03-14T09:14:33.777Z,23.25
2018-03-14T09:15:33.732Z,23.23
2018-03-14T09:16:33.692Z,23.21
2018-03-14T09:17:33.680Z,23.21
2018-03-14T09:18:33.643Z,23.29
2018-03-14T09:19:33.588Z,23.29
2018-03-14T09:20:33.548Z,23.29
2018-03-14T09:21:33.509Z,23.28
2018-03-14T09:22:33.501Z,23.29
2018-03-14T09:23:33.435Z,23.25
2018-03-14T09:24:33.406Z,23.28
2018-03-14T09:25:33.370Z,23.25
2018-03-14T09:26:33.334Z,23.26
2018-03-14T09:27:33.330Z,23.29
2018-03-14T09:28:33.255Z,23.29
2018-03-14T09:29:33.229Z,23.40
2018-03-14T09:30:33.184Z,23.26
2018-03-14T09:31:33.150Z,23.32
2018-03-14T09:32:33.155Z,23.36
2018-03-14T09:33:33.079Z,23.29
2018-03-14T09:34:33.044Z,23.29
2018-03-14T09:35:33.036Z,23.34
2018-03-14T09:36:32.973Z,23.29
2018-03-14T09:37:32.937Z,23.29
2018-03-14T09:38:32.931Z,23.32
2018-03-14T09:39:32.862Z,23.34
2018-03-14T09:40:32.847Z,23.34
2018-03-14T09:41:32.791Z,23.34
2018-03-14T09:42:32.756Z,23.36
2018-03-14T09:43:32.747Z,23.36
2018-03-14T09:44:32.685Z,23.32
2018-03-14T09:45:32.650Z,23.37
2018-03-14T09:46:32.607Z,23.34
2018-03-14T09:47:32.577Z,23.36
2018-03-14T09:48:32.531Z,23.37
2018-03-14T09:49:32.517Z,23.33
2018-03-14T09:50:32.457Z,23.39
2018-03-14T09:51:32.433Z,23.40
2018-03-14T09:52:32.388Z,23.37
2018-03-14T09:53:32.357Z,23.40
2018-03-14T09:54:32.331Z,23.32
2018-03-14T09:55:32.284Z,23.34
2018-03-14T09:56:32.247Z,23.34
2018-03-14T09:57:32.217Z,23.42
2018-03-14T09:58:32.221Z,23.36
2018-03-14T09:59:32.138Z,23.37
2018-03-14T10:00:32.130Z,23.34
2018-03-14T10:01:32.068Z,23.29
2018-03-14T10:02:32.033Z,23.33
2018-03-14T10:03:31.989Z,23.37
2018-03-14T10:04:31.975Z,23.40
2018-03-14T10:05:31.922Z,23.42
2018-03-14T10:06:31.888Z,23.39
2018-03-14T10:07:31.847Z,23.44
2018-03-14T10:08:31.838Z,23.40
2018-03-14T10:09:31.778Z,23.52
2018-03-14T10:10:31.742Z,23.51
2018-03-14T10:11:31.700Z,23.52
2018-03-14T10:12:31.663Z,23.48
2018-03-14T10:13:31.653Z,23.54
2018-03-14T10:14:31.594Z,23.48
2018-03-14T10:15:31.571Z,23.49
2018-03-14T10:16:31.521Z,23.55
2018-03-14T10:17:31.485Z,23.47
2018-03-14T10:18:31.481Z,23.49
2018-03-14T10:19:31.411Z,23.52
2018-03-14T10:20:31.383Z,23.55
2018-03-14T10:21:31.340Z,23.64
2018-03-14T10:22:31.309Z,23.58
2018-03-14T10:23:31.295Z,23.59
2018-03-14T10:24:31.237Z,23.59
2018-03-14T10:25:31.254Z,23.58
2018-03-14T10:26:31.165Z,23.56
2018-03-14T10:27:31.131Z,23.54
2018-03-14T10:28:31.110Z,23.55
2018-03-14T10:29:31.059Z,23.66
2018-03-14T10:30:31.018Z,23.58
2018-03-14T10:31:30.981Z,23.55
2018-03-14T10:32:30.946Z,23.66
2018-03-14T10:33:31.463Z,23.66
2018-03-14T10:34:30.875Z,23.67
2018-03-14T10:35:30.841Z,23.69
2018-03-14T10:36:30.810Z,23.67
2018-03-14T10:37:30.775Z,23.67
2018-03-14T10:38:30.753Z,23.66
2018-03-14T10:39:30.700Z,23.70
2018-03-14T10:40:30.656Z,23.69
2018-03-14T10:41:30.621Z,23.66
2018-03-14T10:42:30.641Z,23.67
2018-03-14T10:43:30.554Z,23.70
2018-03-14T10:44:30.519Z,23.74
2018-03-14T10:45:30.481Z,23.79
2018-03-14T10:46:30.441Z,23.79
2018-03-14T10:47:30.424Z,23.79
2018-03-14T10:48:30.375Z,23.84
2018-03-14T10:49:30.352Z,23.89
2018-03-14T10:50:30.307Z,23.85
2018-03-14T10:51:30.261Z,23.86
2018-03-14T10:52:30.258Z,23.84
2018-03-14T10:53:30.197Z,23.89
2018-03-14T10:54:30.155Z,23.89
2018-03-14T10:55:30.127Z,23.89
2018-03-14T10:56:30.093Z,23.96
2018-03-14T10:57:30.075Z,23.91
2018-03-14T10:58:30.013Z,23.99
2018-03-14T10:59:29.976Z,23.92
2018-03-14T11:00:29.940Z,23.99
2018-03-14T11:01:29.913Z,24.01
2018-03-14T11:02:29.895Z,24.04
2018-03-14T11:03:29.847Z,23.96
2018-03-14T11:04:29.798Z,24.10
2018-03-14T11:05:29.773Z,24.09
2018-03-14T11:06:29.731Z,24.10
2018-03-14T11:07:29.713Z,24.10
2018-03-14T11:08:29.662Z,24.10
2018-03-14T11:09:29.621Z,24.10
2018-03-14T11:10:29.588Z,24.03
2018-03-14T11:11:29.550Z,24.09
2018-03-14T11:12:29.534Z,24.10
2018-03-14T11:13:29.478Z,24.06
2018-03-14T11:14:29.447Z,24.11
2018-03-14T11:15:29.405Z,24.09
2018-03-14T11:16:29.373Z,24.13
2018-03-14T11:17:29.363Z,24.07
2018-03-14T11:18:29.306Z,24.10
2018-03-14T11:19:29.268Z,24.18
2018-03-14T11:20:29.235Z,24.11
2018-03-14T11:21:29.227Z,24.14
2018-03-14T11:22:29.157Z,24.16
2018-03-14T11:23:29.128Z,24.24
2018-03-14T11:24:29.090Z,24.16
2018-03-14T11:25:29.052Z,24.24
2018-03-14T11:26:29.051Z,24.19
2018-03-14T11:27:28.986Z,24.16
2018-03-14T11:28:28.946Z,24.21
2018-03-14T11:29:28.911Z,24.14
2018-03-14T11:30:28.883Z,24.22
2018-03-14T11:31:28.867Z,24.24
2018-03-14T11:32:28.810Z,24.24
2018-03-14T11:33:28.774Z,24.29
2018-03-14T11:34:28.737Z,24.29
2018-03-14T11:35:28.702Z,24.32
2018-03-14T11:36:28.692Z,24.32
2018-03-14T11:37:28.637Z,24.32
2018-03-14T11:38:28.596Z,24.31
2018-03-14T11:39:28.564Z,24.34
2018-03-14T11:40:28.519Z,24.34
2018-03-14T11:41:28.512Z,24.38
2018-03-14T11:42:28.450Z,24.40
2018-03-14T11:43:28.422Z,24.32
2018-03-14T11:44:28.381Z,24.28
2018-03-14T11:45:28.374Z,24.34
2018-03-14T11:46:28.317Z,24.32
2018-03-14T11:47:28.273Z,24.36
2018-03-14T11:48:28.281Z,24.32
2018-03-14T11:49:28.208Z,24.34
2018-03-14T11:50:28.168Z,24.34
2018-03-14T11:51:29.000Z,24.32
2018-03-14T11:52:28.100Z,24.34
2018-03-14T11:53:28.089Z,24.34
2018-03-14T11:54:28.028Z,24.41
2018-03-14T11:55:27.998Z,24.26
2018-03-14T11:56:27.987Z,24.47
2018-03-14T11:57:27.927Z,24.41
2018-03-14T11:58:27.913Z,24.40
2018-03-14T11:59:27.857Z,24.44
2018-03-14T12:00:27.818Z,24.48
2018-03-14T12:01:27.785Z,24.47
2018-03-14T12:02:27.750Z,24.53
2018-03-14T12:03:27.754Z,24.44
2018-03-14T12:04:27.674Z,24.44
2018-03-14T12:05:27.647Z,24.46
2018-03-14T12:06:27.602Z,24.53
2018-03-14T12:07:27.575Z,24.53
2018-03-14T12:08:27.556Z,24.53
2018-03-14T12:09:27.548Z,24.56
2018-03-14T12:10:27.468Z,24.48
2018-03-14T12:11:27.441Z,24.51
2018-03-14T12:12:27.393Z,24.51
2018-03-14T12:13:27.389Z,24.55
2018-03-14T12:14:27.328Z,24.56
2018-03-14T12:15:27.298Z,24.51
2018-03-14T12:16:27.261Z,24.56
2018-03-14T12:17:27.226Z,24.53
2018-03-14T12:18:27.206Z,24.58
2018-03-14T12:19:27.152Z,24.53
2018-03-14T12:20:27.115Z,24.63
2018-03-14T12:21:27.080Z,24.55
2018-03-14T12:22:27.069Z,24.59
2018-03-14T12:23:27.016Z,24.65
2018-03-14T12:24:26.980Z,24.59
2018-03-14T12:25:26.942Z,24.62
2018-03-14T12:26:26.909Z,24.62
2018-03-14T12:27:26.891Z,24.59
2018-03-14T12:28:26.833Z,24.59
2018-03-14T12:29:26.806Z,24.61
2018-03-14T12:30:26.762Z,24.65
2018-03-14T12:31:26.725Z,24.61
2018-03-14T12:32:26.729Z,24.63
2018-03-14T12:33:26.684Z,24.63
2018-03-14T12:34:26.647Z,24.68
2018-03-14T12:35:26.595Z,24.65
2018-03-14T12:36:26.557Z,24.68
2018-03-14T12:37:26.519Z,24.66
2018-03-14T12:38:26.509Z,24.66
2018-03-14T12:39:26.446Z,24.79
2018-03-14T12:40:26.418Z,24.78
2018-03-14T12:41:26.377Z,24.78
2018-03-14T12:42:26.347Z,24.74
2018-03-14T12:43:26.330Z,24.71
2018-03-14T12:44:26.279Z,24.78
2018-03-14T12:45:26.238Z,24.79
2018-03-14T12:46:26.204Z,24.71
2018-03-14T12:47:26.207Z,24.82
2018-03-14T12:48:26.140Z,24.74
2018-03-14T12:49:37.531Z,24.68
2018-03-14T12:50:26.082Z,24.77
2018-03-14T12:51:26.078Z,24.78